sensor_id;sensor_type;location;lat;lon;timestamp;temperature;humidity
67555;HTU21D;54385;53.516;49.456;2022-08-19T00:00:43;16.43;46.87
67555;HTU21D;54385;53.516;49.456;2022-08-19T00:03:10;16.39;46.83
67555;HTU21D;54385;53.516;49.456;2022-08-19T00:05:36;16.35;46.77
67555;HTU21D;54385;53.516;49.456;2022-08-19T00:08:03;16.31;46.64
67555;HTU21D;54385;53.516;49.456;2022-08-19T00:10:29;16.28;46.55
67555;HTU21D;54385;53.516;49.456;2022-08-19T00:12:56;16.27;46.58
67555;HTU21D;54385;53.516;49.456;2022-08-19T00:15:22;16.26;46.52
67555;HTU21D;54385;53.516;49.456;2022-08-19T00:17:48;16.24;46.51
67555;HTU21D;54385;53.516;49.456;2022-08-19T00:20:18;16.21;46.41
67555;HTU21D;54385;53.516;49.456;2022-08-19T00:22:46;16.16;46.59
67555;HTU21D;54385;53.516;49.456;2022-08-19T00:25:14;16.16;46.65
67555;HTU21D;54385;53.516;49.456;2022-08-19T00:27:41;16.13;46.83
67555;HTU21D;54385;53.516;49.456;2022-08-19T00:30:08;16.10;46.71
67555;HTU21D;54385;53.516;49.456;2022-08-19T00:32:36;16.07;46.66
67555;HTU21D;54385;53.516;49.456;2022-08-19T00:35:03;16.07;46.77
67555;HTU21D;54385;53.516;49.456;2022-08-19T00:37:30;16.04;46.73
67555;HTU21D;54385;53.516;49.456;2022-08-19T00:39:56;15.98;46.88
67555;HTU21D;54385;53.516;49.456;2022-08-19T00:42:23;15.93;46.97
67555;HTU21D;54385;53.516;49.456;2022-08-19T00:44:49;15.86;47.06
67555;HTU21D;54385;53.516;49.456;2022-08-19T00:47:16;15.83;47.14
67555;HTU21D;54385;53.516;49.456;2022-08-19T00:49:47;15.76;47.19
67555;HTU21D;54385;53.516;49.456;2022-08-19T00:52:24;15.76;47.20
67555;HTU21D;54385;53.516;49.456;2022-08-19T00:54:55;15.76;47.07
67555;HTU21D;54385;53.516;49.456;2022-08-19T00:57:29;15.71;47.36
67555;HTU21D;54385;53.516;49.456;2022-08-19T00:59:58;15.61;47.45
67555;HTU21D;54385;53.516;49.456;2022-08-19T01:02:26;15.59;47.46
67555;HTU21D;54385;53.516;49.456;2022-08-19T01:04:53;15.58;47.54
67555;HTU21D;54385;53.516;49.456;2022-08-19T01:07:20;15.53;47.57
67555;HTU21D;54385;53.516;49.456;2022-08-19T01:09:46;15.46;47.74
67555;HTU21D;54385;53.516;49.456;2022-08-19T01:12:13;15.40;47.90
67555;HTU21D;54385;53.516;49.456;2022-08-19T01:14:40;15.40;47.84
67555;HTU21D;54385;53.516;49.456;2022-08-19T01:17:10;15.46;47.54
67555;HTU21D;54385;53.516;49.456;2022-08-19T01:19:38;15.44;47.73
67555;HTU21D;54385;53.516;49.456;2022-08-19T01:24:51;15.46;47.70
67555;HTU21D;54385;53.516;49.456;2022-08-19T01:27:18;15.45;47.77
67555;HTU21D;54385;53.516;49.456;2022-08-19T01:29:45;15.43;47.78
67555;HTU21D;54385;53.516;49.456;2022-08-19T01:32:15;15.44;47.80
67555;HTU21D;54385;53.516;49.456;2022-08-19T01:34:42;15.40;47.81
67555;HTU21D;54385;53.516;49.456;2022-08-19T01:37:13;15.39;47.75
67555;HTU21D;54385;53.516;49.456;2022-08-19T01:39:41;15.42;47.59
67555;HTU21D;54385;53.516;49.456;2022-08-19T01:42:08;15.40;47.60
67555;HTU21D;54385;53.516;49.456;2022-08-19T01:44:39;15.37;47.63
67555;HTU21D;54385;53.516;49.456;2022-08-19T01:47:07;15.36;47.59
67555;HTU21D;54385;53.516;49.456;2022-08-19T01:49:35;15.37;47.55
67555;HTU21D;54385;53.516;49.456;2022-08-19T01:52:03;15.39;47.57
67555;HTU21D;54385;53.516;49.456;2022-08-19T01:54:30;15.39;47.62
67555;HTU21D;54385;53.516;49.456;2022-08-19T01:57:05;15.38;47.48
67555;HTU21D;54385;53.516;49.456;2022-08-19T01:59:33;15.39;47.38
67555;HTU21D;54385;53.516;49.456;2022-08-19T02:01:59;15.45;47.05
67555;HTU21D;54385;53.516;49.456;2022-08-19T02:04:26;15.42;46.95
67555;HTU21D;54385;53.516;49.456;2022-08-19T02:06:57;15.46;46.82
67555;HTU21D;54385;53.516;49.456;2022-08-19T02:09:23;15.52;46.60
67555;HTU21D;54385;53.516;49.456;2022-08-19T02:11:50;15.53;46.46
67555;HTU21D;54385;53.516;49.456;2022-08-19T02:14:16;15.58;46.34
67555;HTU21D;54385;53.516;49.456;2022-08-19T02:16:43;15.63;46.15
67555;HTU21D;54385;53.516;49.456;2022-08-19T02:19:09;15.69;45.86
67555;HTU21D;54385;53.516;49.456;2022-08-19T02:21:37;15.70;45.73
67555;HTU21D;54385;53.516;49.456;2022-08-19T02:24:03;15.73;45.67
67555;HTU21D;54385;53.516;49.456;2022-08-19T02:26:31;15.80;45.71
67555;HTU21D;54385;53.516;49.456;2022-08-19T02:28:57;15.87;45.81
67555;HTU21D;54385;53.516;49.456;2022-08-19T02:31:25;15.85;45.73
67555;HTU21D;54385;53.516;49.456;2022-08-19T02:33:55;15.85;45.70
67555;HTU21D;54385;53.516;49.456;2022-08-19T02:36:23;15.89;45.60
67555;HTU21D;54385;53.516;49.456;2022-08-19T02:38:49;15.89;45.59
67555;HTU21D;54385;53.516;49.456;2022-08-19T02:41:19;15.88;45.45
67555;HTU21D;54385;53.516;49.456;2022-08-19T02:43:46;15.90;45.48
67555;HTU21D;54385;53.516;49.456;2022-08-19T02:46:27;15.98;45.64
67555;HTU21D;54385;53.516;49.456;2022-08-19T02:49:00;16.05;45.38
67555;HTU21D;54385;53.516;49.456;2022-08-19T02:51:34;16.06;45.23
67555;HTU21D;54385;53.516;49.456;2022-08-19T02:54:01;16.15;45.13
67555;HTU21D;54385;53.516;49.456;2022-08-19T02:56:28;16.21;45.11
67555;HTU21D;54385;53.516;49.456;2022-08-19T02:58:55;16.31;44.93
67555;HTU21D;54385;53.516;49.456;2022-08-19T03:01:26;16.35;44.99
67555;HTU21D;54385;53.516;49.456;2022-08-19T03:03:54;16.43;44.83
67555;HTU21D;54385;53.516;49.456;2022-08-19T03:06:21;16.47;44.79
67555;HTU21D;54385;53.516;49.456;2022-08-19T03:08:49;16.50;44.52
67555;HTU21D;54385;53.516;49.456;2022-08-19T03:11:29;16.55;44.38
67555;HTU21D;54385;53.516;49.456;2022-08-19T03:13:57;16.56;44.51
67555;HTU21D;54385;53.516;49.456;2022-08-19T03:16:25;16.65;44.30
67555;HTU21D;54385;53.516;49.456;2022-08-19T03:18:53;16.71;44.29
67555;HTU21D;54385;53.516;49.456;2022-08-19T03:21:23;16.77;44.26
67555;HTU21D;54385;53.516;49.456;2022-08-19T03:23:53;16.81;44.38
67555;HTU21D;54385;53.516;49.456;2022-08-19T03:26:20;16.90;44.34
67555;HTU21D;54385;53.516;49.456;2022-08-19T03:28:47;16.90;44.38
67555;HTU21D;54385;53.516;49.456;2022-08-19T03:31:18;16.99;44.41
67555;HTU21D;54385;53.516;49.456;2022-08-19T03:33:45;17.03;44.32
67555;HTU21D;54385;53.516;49.456;2022-08-19T03:36:18;17.17;44.20
67555;HTU21D;54385;53.516;49.456;2022-08-19T03:38:52;17.18;44.42
67555;HTU21D;54385;53.516;49.456;2022-08-19T03:41:26;17.21;44.31
67555;HTU21D;54385;53.516;49.456;2022-08-19T03:43:53;17.34;44.31
67555;HTU21D;54385;53.516;49.456;2022-08-19T03:46:24;17.44;44.61
67555;HTU21D;54385;53.516;49.456;2022-08-19T03:48:54;17.55;44.42
67555;HTU21D;54385;53.516;49.456;2022-08-19T03:51:29;17.66;45.50
67555;HTU21D;54385;53.516;49.456;2022-08-19T03:54:05;17.69;44.08
67555;HTU21D;54385;53.516;49.456;2022-08-19T03:56:34;17.87;44.09
67555;HTU21D;54385;53.516;49.456;2022-08-19T03:59:03;17.96;44.03
67555;HTU21D;54385;53.516;49.456;2022-08-19T04:01:30;18.03;44.13
67555;HTU21D;54385;53.516;49.456;2022-08-19T04:03:57;18.10;44.35
67555;HTU21D;54385;53.516;49.456;2022-08-19T04:06:29;18.09;44.22
67555;HTU21D;54385;53.516;49.456;2022-08-19T04:09:03;18.24;44.52
67555;HTU21D;54385;53.516;49.456;2022-08-19T04:11:35;18.25;44.03
67555;HTU21D;54385;53.516;49.456;2022-08-19T04:14:30;18.29;44.16
67555;HTU21D;54385;53.516;49.456;2022-08-19T04:16:59;18.39;44.19
67555;HTU21D;54385;53.516;49.456;2022-08-19T04:19:28;18.50;44.03
67555;HTU21D;54385;53.516;49.456;2022-08-19T04:21:55;18.56;43.78
67555;HTU21D;54385;53.516;49.456;2022-08-19T04:24:22;18.61;43.78
67555;HTU21D;54385;53.516;49.456;2022-08-19T04:26:52;18.64;43.95
67555;HTU21D;54385;53.516;49.456;2022-08-19T04:29:24;18.82;43.74
67555;HTU21D;54385;53.516;49.456;2022-08-19T04:31:52;18.93;43.38
67555;HTU21D;54385;53.516;49.456;2022-08-19T04:34:21;18.97;43.26
67555;HTU21D;54385;53.516;49.456;2022-08-19T04:36:52;18.87;43.54
67555;HTU21D;54385;53.516;49.456;2022-08-19T04:39:23;18.96;43.31
67555;HTU21D;54385;53.516;49.456;2022-08-19T04:42:14;19.07;43.21
67555;HTU21D;54385;53.516;49.456;2022-08-19T04:45:38;19.22;42.97
67555;HTU21D;54385;53.516;49.456;2022-08-19T04:48:05;19.27;43.22
67555;HTU21D;54385;53.516;49.456;2022-08-19T04:50:34;19.40;43.16
67555;HTU21D;54385;53.516;49.456;2022-08-19T04:53:01;19.37;42.60
67555;HTU21D;54385;53.516;49.456;2022-08-19T04:55:27;19.46;42.79
67555;HTU21D;54385;53.516;49.456;2022-08-19T04:57:55;19.58;42.68
67555;HTU21D;54385;53.516;49.456;2022-08-19T05:00:22;19.73;42.46
67555;HTU21D;54385;53.516;49.456;2022-08-19T05:02:49;19.83;42.31
67555;HTU21D;54385;53.516;49.456;2022-08-19T05:05:17;19.90;42.29
67555;HTU21D;54385;53.516;49.456;2022-08-19T05:07:43;20.06;42.05
67555;HTU21D;54385;53.516;49.456;2022-08-19T05:10:13;20.05;41.50
67555;HTU21D;54385;53.516;49.456;2022-08-19T05:12:39;20.00;41.60
67555;HTU21D;54385;53.516;49.456;2022-08-19T05:15:08;20.07;41.52
67555;HTU21D;54385;53.516;49.456;2022-08-19T05:17:34;20.15;41.30
67555;HTU21D;54385;53.516;49.456;2022-08-19T05:20:03;20.31;41.09
67555;HTU21D;54385;53.516;49.456;2022-08-19T05:22:49;20.43;41.07
67555;HTU21D;54385;53.516;49.456;2022-08-19T05:25:18;20.46;41.11
67555;HTU21D;54385;53.516;49.456;2022-08-19T05:27:45;20.55;40.91
67555;HTU21D;54385;53.516;49.456;2022-08-19T05:30:12;20.65;40.80
67555;HTU21D;54385;53.516;49.456;2022-08-19T05:32:40;20.70;40.88
67555;HTU21D;54385;53.516;49.456;2022-08-19T05:35:07;20.75;40.62
67555;HTU21D;54385;53.516;49.456;2022-08-19T05:37:34;20.74;40.57
67555;HTU21D;54385;53.516;49.456;2022-08-19T05:40:00;20.90;40.86
67555;HTU21D;54385;53.516;49.456;2022-08-19T05:42:27;21.04;40.36
67555;HTU21D;54385;53.516;49.456;2022-08-19T05:44:54;21.10;39.83
67555;HTU21D;54385;53.516;49.456;2022-08-19T05:47:22;21.29;39.88
67555;HTU21D;54385;53.516;49.456;2022-08-19T05:49:49;21.34;39.56
67555;HTU21D;54385;53.516;49.456;2022-08-19T05:52:17;21.40;39.64
67555;HTU21D;54385;53.516;49.456;2022-08-19T05:54:44;21.42;39.38
67555;HTU21D;54385;53.516;49.456;2022-08-19T05:57:14;21.48;39.40
67555;HTU21D;54385;53.516;49.456;2022-08-19T05:59:40;21.63;39.26
67555;HTU21D;54385;53.516;49.456;2022-08-19T06:02:07;21.66;38.98
67555;HTU21D;54385;53.516;49.456;2022-08-19T06:04:34;21.74;38.88
67555;HTU21D;54385;53.516;49.456;2022-08-19T06:07:01;21.80;38.90
67555;HTU21D;54385;53.516;49.456;2022-08-19T06:09:28;21.91;38.62
67555;HTU21D;54385;53.516;49.456;2022-08-19T06:11:57;21.95;38.58
67555;HTU21D;54385;53.516;49.456;2022-08-19T06:14:30;22.01;38.11
67555;HTU21D;54385;53.516;49.456;2022-08-19T06:16:58;22.09;37.94
67555;HTU21D;54385;53.516;49.456;2022-08-19T06:19:29;22.20;37.85
67555;HTU21D;54385;53.516;49.456;2022-08-19T06:21:58;22.29;37.72
67555;HTU21D;54385;53.516;49.456;2022-08-19T06:24:27;22.41;37.66
67555;HTU21D;54385;53.516;49.456;2022-08-19T06:26:55;22.51;37.46
67555;HTU21D;54385;53.516;49.456;2022-08-19T06:29:24;22.60;37.21
67555;HTU21D;54385;53.516;49.456;2022-08-19T06:31:53;22.75;37.11
67555;HTU21D;54385;53.516;49.456;2022-08-19T06:34:24;22.91;36.92
67555;HTU21D;54385;53.516;49.456;2022-08-19T06:36:52;23.05;36.77
67555;HTU21D;54385;53.516;49.456;2022-08-19T06:39:24;23.05;36.11
67555;HTU21D;54385;53.516;49.456;2022-08-19T06:41:53;23.07;36.22
67555;HTU21D;54385;53.516;49.456;2022-08-19T06:44:26;22.99;36.27
67555;HTU21D;54385;53.516;49.456;2022-08-19T06:47:06;23.05;36.23
67555;HTU21D;54385;53.516;49.456;2022-08-19T06:49:36;23.11;36.24
67555;HTU21D;54385;53.516;49.456;2022-08-19T06:52:05;23.10;35.68
67555;HTU21D;54385;53.516;49.456;2022-08-19T06:54:32;23.07;36.00
67555;HTU21D;54385;53.516;49.456;2022-08-19T06:57:01;23.24;35.73
67555;HTU21D;54385;53.516;49.456;2022-08-19T06:59:29;23.41;35.89
67555;HTU21D;54385;53.516;49.456;2022-08-19T07:02:01;23.53;35.38
67555;HTU21D;54385;53.516;49.456;2022-08-19T07:04:31;23.57;35.59
67555;HTU21D;54385;53.516;49.456;2022-08-19T07:07:10;23.62;35.08
67555;HTU21D;54385;53.516;49.456;2022-08-19T07:09:41;23.79;35.02
67555;HTU21D;54385;53.516;49.456;2022-08-19T07:12:12;23.84;34.76
67555;HTU21D;54385;53.516;49.456;2022-08-19T07:14:44;23.88;34.60
67555;HTU21D;54385;53.516;49.456;2022-08-19T07:17:40;24.05;34.49
67555;HTU21D;54385;53.516;49.456;2022-08-19T07:20:11;24.08;34.63
67555;HTU21D;54385;53.516;49.456;2022-08-19T07:22:40;24.17;34.26
67555;HTU21D;54385;53.516;49.456;2022-08-19T07:25:09;24.25;33.95
67555;HTU21D;54385;53.516;49.456;2022-08-19T07:27:45;24.30;33.86
67555;HTU21D;54385;53.516;49.456;2022-08-19T07:30:20;24.34;33.60
67555;HTU21D;54385;53.516;49.456;2022-08-19T07:32:50;24.38;33.22
67555;HTU21D;54385;53.516;49.456;2022-08-19T07:35:20;24.38;32.76
67555;HTU21D;54385;53.516;49.456;2022-08-19T07:37:47;24.45;33.36
67555;HTU21D;54385;53.516;49.456;2022-08-19T07:40:17;24.45;32.57
67555;HTU21D;54385;53.516;49.456;2022-08-19T07:42:49;24.53;32.74
67555;HTU21D;54385;53.516;49.456;2022-08-19T07:45:19;24.66;32.54
67555;HTU21D;54385;53.516;49.456;2022-08-19T07:47:56;24.69;32.36
67555;HTU21D;54385;53.516;49.456;2022-08-19T07:51:06;24.84;32.44
67555;HTU21D;54385;53.516;49.456;2022-08-19T07:53:50;24.89;31.80
67555;HTU21D;54385;53.516;49.456;2022-08-19T07:56:40;24.95;31.83
67555;HTU21D;54385;53.516;49.456;2022-08-19T07:59:17;25.08;31.70
67555;HTU21D;54385;53.516;49.456;2022-08-19T08:01:47;25.02;31.49
67555;HTU21D;54385;53.516;49.456;2022-08-19T08:12:36;25.32;30.29
67555;HTU21D;54385;53.516;49.456;2022-08-19T08:24:05;25.65;30.02
67555;HTU21D;54385;53.516;49.456;2022-08-19T08:27:51;25.71;29.17
67555;HTU21D;54385;53.516;49.456;2022-08-19T08:31:04;25.63;29.34
67555;HTU21D;54385;53.516;49.456;2022-08-19T08:40:38;26.03;29.19
67555;HTU21D;54385;53.516;49.456;2022-08-19T08:43:50;26.13;28.24
67555;HTU21D;54385;53.516;49.456;2022-08-19T08:50:35;25.96;28.13
67555;HTU21D;54385;53.516;49.456;2022-08-19T08:53:17;25.95;28.28
67555;HTU21D;54385;53.516;49.456;2022-08-19T08:55:44;26.06;27.85
67555;HTU21D;54385;53.516;49.456;2022-08-19T08:58:54;26.19;27.83
67555;HTU21D;54385;53.516;49.456;2022-08-19T09:01:31;26.26;27.58
67555;HTU21D;54385;53.516;49.456;2022-08-19T09:04:05;26.46;26.80
67555;HTU21D;54385;53.516;49.456;2022-08-19T09:09:49;26.56;27.06
67555;HTU21D;54385;53.516;49.456;2022-08-19T09:15:56;26.66;26.71
67555;HTU21D;54385;53.516;49.456;2022-08-19T09:18:47;26.71;26.64
67555;HTU21D;54385;53.516;49.456;2022-08-19T09:21:16;26.77;26.38
67555;HTU21D;54385;53.516;49.456;2022-08-19T09:24:11;26.79;25.68
67555;HTU21D;54385;53.516;49.456;2022-08-19T09:27:08;26.65;26.26
67555;HTU21D;54385;53.516;49.456;2022-08-19T09:30:21;26.91;27.06
67555;HTU21D;54385;53.516;49.456;2022-08-19T09:33:02;27.02;25.65
67555;HTU21D;54385;53.516;49.456;2022-08-19T09:35:33;27.06;26.14
67555;HTU21D;54385;53.516;49.456;2022-08-19T09:38:01;26.95;25.78
67555;HTU21D;54385;53.516;49.456;2022-08-19T09:40:29;26.81;25.59
67555;HTU21D;54385;53.516;49.456;2022-08-19T09:43:02;26.85;25.30
67555;HTU21D;54385;53.516;49.456;2022-08-19T09:45:29;26.90;25.49
67555;HTU21D;54385;53.516;49.456;2022-08-19T09:47:56;26.87;25.58
67555;HTU21D;54385;53.516;49.456;2022-08-19T09:50:23;27.22;25.83
67555;HTU21D;54385;53.516;49.456;2022-08-19T09:52:50;27.12;25.30
67555;HTU21D;54385;53.516;49.456;2022-08-19T09:55:19;27.32;24.91
67555;HTU21D;54385;53.516;49.456;2022-08-19T09:57:56;27.94;24.44
67555;HTU21D;54385;53.516;49.456;2022-08-19T10:00:23;28.37;23.95
67555;HTU21D;54385;53.516;49.456;2022-08-19T10:02:50;28.70;23.34
67555;HTU21D;54385;53.516;49.456;2022-08-19T10:05:16;29.23;22.71
67555;HTU21D;54385;53.516;49.456;2022-08-19T10:08:02;29.77;22.10
67555;HTU21D;54385;53.516;49.456;2022-08-19T10:10:28;30.10;21.65
67555;HTU21D;54385;53.516;49.456;2022-08-19T10:12:54;30.60;21.26
67555;HTU21D;54385;53.516;49.456;2022-08-19T10:15:21;30.94;20.70
67555;HTU21D;54385;53.516;49.456;2022-08-19T10:17:48;31.24;20.01
67555;HTU21D;54385;53.516;49.456;2022-08-19T10:20:14;31.26;19.50
67555;HTU21D;54385;53.516;49.456;2022-08-19T10:22:41;31.63;19.14
67555;HTU21D;54385;53.516;49.456;2022-08-19T10:25:09;31.86;18.48
67555;HTU21D;54385;53.516;49.456;2022-08-19T10:27:35;32.00;18.00
67555;HTU21D;54385;53.516;49.456;2022-08-19T10:30:06;32.10;16.93
67555;HTU21D;54385;53.516;49.456;2022-08-19T10:32:37;32.11;17.82
67555;HTU21D;54385;53.516;49.456;2022-08-19T10:35:03;32.05;16.04
67555;HTU21D;54385;53.516;49.456;2022-08-19T10:37:35;31.97;17.12
67555;HTU21D;54385;53.516;49.456;2022-08-19T10:40:07;32.29;16.67
67555;HTU21D;54385;53.516;49.456;2022-08-19T10:42:35;32.40;16.50
67555;HTU21D;54385;53.516;49.456;2022-08-19T10:45:02;32.55;16.29
67555;HTU21D;54385;53.516;49.456;2022-08-19T10:47:29;32.63;16.61
67555;HTU21D;54385;53.516;49.456;2022-08-19T10:50:00;32.67;16.64
67555;HTU21D;54385;53.516;49.456;2022-08-19T10:52:48;32.50;16.58
67555;HTU21D;54385;53.516;49.456;2022-08-19T10:55:15;32.24;16.12
67555;HTU21D;54385;53.516;49.456;2022-08-19T10:58:00;32.08;16.23
67555;HTU21D;54385;53.516;49.456;2022-08-19T11:00:27;32.45;16.16
67555;HTU21D;54385;53.516;49.456;2022-08-19T11:02:57;32.78;15.75
67555;HTU21D;54385;53.516;49.456;2022-08-19T11:05:24;32.85;15.76
67555;HTU21D;54385;53.516;49.456;2022-08-19T11:07:50;32.70;15.53
67555;HTU21D;54385;53.516;49.456;2022-08-19T11:10:17;32.48;16.00
67555;HTU21D;54385;53.516;49.456;2022-08-19T11:12:45;32.37;16.23
67555;HTU21D;54385;53.516;49.456;2022-08-19T11:15:12;32.70;16.08
67555;HTU21D;54385;53.516;49.456;2022-08-19T11:17:39;33.03;16.17
67555;HTU21D;54385;53.516;49.456;2022-08-19T11:20:11;33.00;15.84
67555;HTU21D;54385;53.516;49.456;2022-08-19T11:22:38;33.09;15.48
67555;HTU21D;54385;53.516;49.456;2022-08-19T11:25:07;33.19;15.48
67555;HTU21D;54385;53.516;49.456;2022-08-19T11:27:40;33.02;15.45
67555;HTU21D;54385;53.516;49.456;2022-08-19T11:30:12;33.04;15.42
67555;HTU21D;54385;53.516;49.456;2022-08-19T11:32:40;32.98;14.86
67555;HTU21D;54385;53.516;49.456;2022-08-19T11:35:08;33.06;14.50
67555;HTU21D;54385;53.516;49.456;2022-08-19T11:37:34;32.97;14.87
67555;HTU21D;54385;53.516;49.456;2022-08-19T11:40:04;33.47;14.51
67555;HTU21D;54385;53.516;49.456;2022-08-19T11:42:31;33.46;14.39
67555;HTU21D;54385;53.516;49.456;2022-08-19T11:45:16;33.71;14.22
67555;HTU21D;54385;53.516;49.456;2022-08-19T11:47:43;33.81;13.88
67555;HTU21D;54385;53.516;49.456;2022-08-19T11:50:10;33.76;14.34
67555;HTU21D;54385;53.516;49.456;2022-08-19T11:52:36;33.91;14.18
67555;HTU21D;54385;53.516;49.456;2022-08-19T11:55:03;34.31;13.83
67555;HTU21D;54385;53.516;49.456;2022-08-19T11:57:30;34.55;13.42
67555;HTU21D;54385;53.516;49.456;2022-08-19T12:00:05;34.69;13.11
67555;HTU21D;54385;53.516;49.456;2022-08-19T12:02:33;34.74;11.88
67555;HTU21D;54385;53.516;49.456;2022-08-19T12:05:00;34.51;12.28
67555;HTU21D;54385;53.516;49.456;2022-08-19T12:07:29;34.42;12.13
67555;HTU21D;54385;53.516;49.456;2022-08-19T12:09:59;34.56;12.22
67555;HTU21D;54385;53.516;49.456;2022-08-19T12:12:27;34.40;12.52
67555;HTU21D;54385;53.516;49.456;2022-08-19T12:14:53;34.52;12.59
67555;HTU21D;54385;53.516;49.456;2022-08-19T12:17:25;35.03;12.13
67555;HTU21D;54385;53.516;49.456;2022-08-19T12:19:52;35.10;11.69
67555;HTU21D;54385;53.516;49.456;2022-08-19T12:22:19;35.41;11.77
67555;HTU21D;54385;53.516;49.456;2022-08-19T12:24:47;35.35;11.45
67555;HTU21D;54385;53.516;49.456;2022-08-19T12:27:16;35.22;10.96
67555;HTU21D;54385;53.516;49.456;2022-08-19T12:29:42;35.45;11.59
67555;HTU21D;54385;53.516;49.456;2022-08-19T12:32:09;35.64;11.40
67555;HTU21D;54385;53.516;49.456;2022-08-19T12:34:36;35.77;11.21
67555;HTU21D;54385;53.516;49.456;2022-08-19T12:37:05;35.69;11.14
67555;HTU21D;54385;53.516;49.456;2022-08-19T12:39:36;35.38;11.49
67555;HTU21D;54385;53.516;49.456;2022-08-19T12:42:03;35.25;11.40
67555;HTU21D;54385;53.516;49.456;2022-08-19T12:44:31;35.41;11.32
67555;HTU21D;54385;53.516;49.456;2022-08-19T12:47:00;35.39;11.59
67555;HTU21D;54385;53.516;49.456;2022-08-19T12:49:29;35.51;11.32
67555;HTU21D;54385;53.516;49.456;2022-08-19T12:52:00;35.78;11.07
67555;HTU21D;54385;53.516;49.456;2022-08-19T12:54:30;35.55;11.52
67555;HTU21D;54385;53.516;49.456;2022-08-19T12:56:57;35.31;12.07
67555;HTU21D;54385;53.516;49.456;2022-08-19T12:59:24;35.04;12.24
67555;HTU21D;54385;53.516;49.456;2022-08-19T13:01:51;34.84;12.59
67555;HTU21D;54385;53.516;49.456;2022-08-19T13:04:18;34.94;12.37
67555;HTU21D;54385;53.516;49.456;2022-08-19T13:06:47;35.31;11.89
67555;HTU21D;54385;53.516;49.456;2022-08-19T13:09:13;35.25;11.95
67555;HTU21D;54385;53.516;49.456;2022-08-19T13:11:40;35.14;12.17
67555;HTU21D;54385;53.516;49.456;2022-08-19T13:14:06;34.74;12.06
67555;HTU21D;54385;53.516;49.456;2022-08-19T13:16:33;34.82;11.99
67555;HTU21D;54385;53.516;49.456;2022-08-19T13:18:59;34.68;11.89
67555;HTU21D;54385;53.516;49.456;2022-08-19T13:21:28;34.62;11.88
67555;HTU21D;54385;53.516;49.456;2022-08-19T13:23:58;34.67;11.73
67555;HTU21D;54385;53.516;49.456;2022-08-19T13:26:25;34.19;12.03
67555;HTU21D;54385;53.516;49.456;2022-08-19T13:28:51;34.25;12.21
67555;HTU21D;54385;53.516;49.456;2022-08-19T13:31:40;34.46;11.42
67555;HTU21D;54385;53.516;49.456;2022-08-19T13:34:34;34.61;11.10
67555;HTU21D;54385;53.516;49.456;2022-08-19T13:37:03;34.47;10.99
67555;HTU21D;54385;53.516;49.456;2022-08-19T13:39:31;34.33;11.07
67555;HTU21D;54385;53.516;49.456;2022-08-19T13:41:59;34.26;11.03
67555;HTU21D;54385;53.516;49.456;2022-08-19T13:44:27;34.06;11.28
67555;HTU21D;54385;53.516;49.456;2022-08-19T13:46:59;33.58;11.81
67555;HTU21D;54385;53.516;49.456;2022-08-19T13:49:28;33.29;12.36
67555;HTU21D;54385;53.516;49.456;2022-08-19T13:51:57;33.29;12.40
67555;HTU21D;54385;53.516;49.456;2022-08-19T13:54:23;32.87;12.82
67555;HTU21D;54385;53.516;49.456;2022-08-19T13:56:55;32.31;13.29
67555;HTU21D;54385;53.516;49.456;2022-08-19T13:59:22;32.30;13.34
67555;HTU21D;54385;53.516;49.456;2022-08-19T14:01:48;31.92;13.80
67555;HTU21D;54385;53.516;49.456;2022-08-19T14:04:15;31.08;14.52
67555;HTU21D;54385;53.516;49.456;2022-08-19T14:06:42;30.60;14.70
67555;HTU21D;54385;53.516;49.456;2022-08-19T14:09:08;30.39;15.09
67555;HTU21D;54385;53.516;49.456;2022-08-19T14:11:35;30.05;15.22
67555;HTU21D;54385;53.516;49.456;2022-08-19T14:14:01;30.07;15.10
67555;HTU21D;54385;53.516;49.456;2022-08-19T14:16:30;29.97;15.19
67555;HTU21D;54385;53.516;49.456;2022-08-19T14:19:00;29.64;15.60
67555;HTU21D;54385;53.516;49.456;2022-08-19T14:21:26;29.42;15.76
67555;HTU21D;54385;53.516;49.456;2022-08-19T14:23:53;29.27;15.84
67555;HTU21D;54385;53.516;49.456;2022-08-19T14:26:22;28.97;15.91
67555;HTU21D;54385;53.516;49.456;2022-08-19T14:28:49;28.76;15.90
67555;HTU21D;54385;53.516;49.456;2022-08-19T14:31:16;28.58;16.03
67555;HTU21D;54385;53.516;49.456;2022-08-19T14:33:49;28.56;16.54
67555;HTU21D;54385;53.516;49.456;2022-08-19T14:36:17;28.38;16.62
67555;HTU21D;54385;53.516;49.456;2022-08-19T14:38:44;28.00;17.06
67555;HTU21D;54385;53.516;49.456;2022-08-19T14:41:14;27.71;17.61
67555;HTU21D;54385;53.516;49.456;2022-08-19T14:43:43;27.43;17.46
67555;HTU21D;54385;53.516;49.456;2022-08-19T14:46:13;27.28;17.71
67555;HTU21D;54385;53.516;49.456;2022-08-19T14:48:42;26.94;18.22
67555;HTU21D;54385;53.516;49.456;2022-08-19T14:51:09;26.54;18.52
67555;HTU21D;54385;53.516;49.456;2022-08-19T14:53:35;26.31;18.89
67555;HTU21D;54385;53.516;49.456;2022-08-19T14:56:10;26.35;18.96
67555;HTU21D;54385;53.516;49.456;2022-08-19T14:58:38;26.36;18.99
67555;HTU21D;54385;53.516;49.456;2022-08-19T15:01:06;26.39;19.00
67555;HTU21D;54385;53.516;49.456;2022-08-19T15:03:33;26.30;19.18
67555;HTU21D;54385;53.516;49.456;2022-08-19T15:06:01;26.13;19.67
67555;HTU21D;54385;53.516;49.456;2022-08-19T15:08:29;25.94;19.90
67555;HTU21D;54385;53.516;49.456;2022-08-19T15:10:57;25.65;20.20
67555;HTU21D;54385;53.516;49.456;2022-08-19T15:13:25;25.51;20.51
67555;HTU21D;54385;53.516;49.456;2022-08-19T15:15:52;25.39;20.59
67555;HTU21D;54385;53.516;49.456;2022-08-19T15:18:19;25.25;21.06
67555;HTU21D;54385;53.516;49.456;2022-08-19T15:20:49;25.25;21.01
67555;HTU21D;54385;53.516;49.456;2022-08-19T15:23:18;25.15;21.33
67555;HTU21D;54385;53.516;49.456;2022-08-19T15:25:45;25.15;21.46
67555;HTU21D;54385;53.516;49.456;2022-08-19T15:28:12;25.15;21.40
67555;HTU21D;54385;53.516;49.456;2022-08-19T15:30:40;25.05;21.64
67555;HTU21D;54385;53.516;49.456;2022-08-19T15:33:06;24.87;22.01
67555;HTU21D;54385;53.516;49.456;2022-08-19T15:35:33;24.76;22.18
67555;HTU21D;54385;53.516;49.456;2022-08-19T15:37:59;24.55;22.77
67555;HTU21D;54385;53.516;49.456;2022-08-19T15:40:26;24.55;22.79
67555;HTU21D;54385;53.516;49.456;2022-08-19T15:42:53;24.35;23.31
67555;HTU21D;54385;53.516;49.456;2022-08-19T15:45:21;24.17;23.87
67555;HTU21D;54385;53.516;49.456;2022-08-19T15:47:47;24.02;24.08
67555;HTU21D;54385;53.516;49.456;2022-08-19T15:50:17;23.90;24.59
67555;HTU21D;54385;53.516;49.456;2022-08-19T15:52:47;23.79;25.07
67555;HTU21D;54385;53.516;49.456;2022-08-19T15:55:15;23.59;25.08
67555;HTU21D;54385;53.516;49.456;2022-08-19T15:57:41;23.45;25.31
67555;HTU21D;54385;53.516;49.456;2022-08-19T16:00:26;23.38;25.59